< < Back
Terminal Aerodrome Forecast


Current Version              Previous Versions:   1  2  3  4  5  6  7  8  9  

Terminal Aerodrome Forecast

986
FTUS44 KMRX 300838 AAA
TAFTYS
TAF AMD
KTYS 300838Z 3009/3106 VRB02KT P6SM SKC
      TEMPO 3010/3012 6SM BR FEW002
     FM301400 02005KT P6SM FEW040
     FM310000 VRB02KT P6SM SCT200=

Latest METAR

247
SAUS80 KWBC 301600 RRA
MTRTYS
METAR KTYS 301553Z 00000KT 10SM CLR 12/06 A3011 RMK AO2 SLP196
T01220056


USA.gov is the U.S. government's official web portal to all federal, state and local government web resources and services.